Time;durP1;ratioP1;P1;durP2;ratioP2;P2;SDS_P1;SDS_P2;PMS_P1;PMS_P2;Temp;Humidity;BMP_temperature;BMP_pressure;BME280_temperature;BME280_humidity;BME280_pressure;Samples;Min_cycle;Max_cycle;Signal;HPM_P1;HPM_P2
2022/06/08 00:05:36;;;;;;;11.90;10.70;;;;;;;15.64;88.85;98285.23;220587;1270;23283;-72
2022/06/08 00:10:44;;;;;;;13.00;10.90;;;;;;;15.62;88.90;98295.13;216947;1271;5337589;-72
2022/06/08 00:15:57;;;;;;;;;;;;;;;;;;;;;
2022/06/08 00:22:02;;;;;;;11.40;10.30;;;;;;;15.59;89.33;98314.69;220783;1271;22554;-72
2022/06/08 00:27:55;;;;;;;12.80;10.60;;;;;;;15.56;89.37;98295.87;220526;1272;23236;-72
2022/06/08 00:33:13;;;;;;;13.50;12.20;;;;;;;15.51;89.18;98286.82;220761;1271;25011;-72
2022/06/08 00:38:19;;;;;;;13.70;11.80;;;;;;;15.45;89.35;98277.58;221083;1272;22607;-71
2022/06/08 00:43:24;;;;;;;12.40;11.20;;;;;;;15.40;89.41;98274.09;220813;1272;24745;-73
2022/06/08 00:49:14;;;;;;;13.80;12.40;;;;;;;15.42;89.97;98264.20;221025;1272;23074;-72
2022/06/08 00:55:10;;;;;;;13.00;11.70;;;;;;;15.44;89.94;98266.91;220749;1271;26540;-72
2022/06/08 01:06:44;;;;;;;13.90;12.40;;;;;;;15.44;90.03;98254.11;220921;1271;22532;-72
2022/06/08 01:12:20;;;;;;;14.40;12.90;;;;;;;15.43;89.97;98242.81;220869;1271;22732;-73
2022/06/08 01:17:39;;;;;;;14.50;13.00;;;;;;;15.38;89.84;98222.73;220863;1272;22697;-72
2022/06/08 01:22:45;;;;;;;14.40;12.90;;;;;;;15.32;89.90;98217.38;220783;1274;22715;-72
2022/06/08 01:28:39;;;;;;;15.20;13.60;;;;;;;15.28;90.20;98219.25;220797;1273;22558;-73
2022/06/08 01:40:52;;;;;;;15.30;13.70;;;;;;;15.22;90.36;98212.64;220905;1273;22645;-73
2022/06/08 01:47:25;;;;;;;16.40;14.70;;;;;;;15.21;90.62;98207.76;220563;1273;22580;-73
2022/06/08 01:53:50;;;;;;;17.60;14.80;;;;;;;15.21;90.75;98206.36;220801;1271;22575;-72
2022/06/08 02:00:28;;;;;;;;;;;;;;;;;;;;;
2022/06/08 02:06:46;;;;;;;17.00;15.20;;;;;;;15.26;91.06;98199.27;220442;1271;26291;-72
2022/06/08 02:13:00;;;;;;;19.80;16.30;;;;;;;15.27;91.06;98202.41;220658;1273;24270;-72
2022/06/08 02:18:31;;;;;;;20.20;17.40;;;;;;;15.29;91.22;98208.54;220273;1276;22576;-73
2022/06/08 02:31:16;;;;;;;16.90;15.10;;;;;;;15.36;91.48;98216.44;220174;1273;22538;-73
2022/06/08 02:36:52;;;;;;;17.50;15.60;;;;;;;15.38;91.32;98221.05;220723;1273;22549;-72
2022/06/08 02:42:15;;;;;;;19.50;15.40;;;;;;;15.42;91.45;98231.20;220409;1272;22561;-73
2022/06/08 02:47:58;;;;;;;17.50;14.90;;;;;;;15.44;91.24;98235.05;220578;1271;22543;-71
2022/06/08 02:53:31;;;;;;;18.20;15.80;;;;;;;15.44;91.43;98241.61;220552;1273;22649;-73
2022/06/08 02:59:11;;;;;;;18.60;15.40;;;;;;;15.43;91.42;98244.66;220747;1271;22557;-72
2022/06/08 03:04:30;;;;;;;17.30;15.40;;;;;;;15.45;91.42;98241.98;220602;1271;22535;-71
2022/06/08 03:09:44;;;;;;;18.70;15.90;;;;;;;15.47;91.47;98231.46;220723;1271;25363;-71
2022/06/08 03:14:54;;;;;;;19.60;15.80;;;;;;;15.50;91.62;98235.66;220856;1271;25245;-73
2022/06/08 03:20:07;;;;;;;19.90;15.50;;;;;;;15.53;91.65;98234.84;220397;1270;22546;-69
2022/06/08 03:25:28;;;;;;;15.70;13.40;;;;;;;15.56;91.50;98242.93;221080;1272;22651;-71
2022/06/08 03:30:44;;;;;;;15.70;13.20;;;;;;;15.61;91.61;98247.48;220675;1273;22623;-73
2022/06/08 03:35:46;;;;;;;15.90;13.30;;;;;;;15.70;91.85;98243.48;220474;1271;22733;-73
2022/06/08 03:40:53;;;;;;;15.00;13.40;;;;;;;15.82;91.84;98244.06;220583;1273;22642;-71
2022/06/08 03:45:58;;;;;;;17.20;13.60;;;;;;;15.93;91.78;98246.64;220740;1273;22620;-73
2022/06/08 03:51:08;;;;;;;16.70;14.90;;;;;;;15.98;91.31;98252.05;220380;1273;22622;-72
2022/06/08 03:56:15;;;;;;;17.60;14.70;;;;;;;16.00;91.31;98253.11;220685;1273;24105;-73
2022/06/08 04:01:32;;;;;;;18.00;14.80;;;;;;;15.98;91.05;98256.60;220556;1273;22551;-72
2022/06/08 04:06:38;;;;;;;18.70;15.20;;;;;;;15.97;91.18;98261.21;220735;1272;24231;-71
2022/06/08 04:11:48;;;;;;;18.70;15.80;;;;;;;15.96;91.28;98263.61;220914;1271;22707;-72
2022/06/08 04:17:07;;;;;;;18.60;16.50;;;;;;;15.95;91.32;98263.91;220751;1272;25523;-71
2022/06/08 04:22:19;;;;;;;19.50;16.20;;;;;;;15.92;91.39;98267.83;220794;1271;22543;-69
2022/06/08 04:27:34;;;;;;;17.90;16.10;;;;;;;15.91;91.61;98263.95;220748;1271;25398;-73
2022/06/08 04:32:40;;;;;;;19.70;17.10;;;;;;;15.91;91.60;98258.63;220805;1274;22566;-71
2022/06/08 04:37:44;;;;;;;19.90;16.20;;;;;;;15.88;91.60;98257.48;220434;1271;25200;-73
2022/06/08 04:42:48;;;;;;;18.00;15.90;;;;;;;15.87;91.74;98254.80;220938;1272;22591;-73
2022/06/08 04:48:14;;;;;;;20.10;15.90;;;;;;;15.84;91.93;98253.67;220449;1271;22552;-71
2022/06/08 04:53:23;;;;;;;20.50;16.40;;;;;;;15.80;91.87;98244.15;220525;1271;24406;-71
2022/06/08 04:58:37;;;;;;;22.40;16.10;;;;;;;15.72;91.57;98235.97;220777;1271;24202;-71
2022/06/08 05:03:40;;;;;;;24.90;17.70;;;;;;;15.61;91.88;98231.92;221164;1271;22885;-72
2022/06/08 05:08:48;;;;;;;27.20;20.00;;;;;;;15.58;92.34;98234.91;220705;1273;23881;-73
2022/06/08 05:14:01;;;;;;;29.30;20.30;;;;;;;15.56;92.53;98233.70;221172;1271;25562;-72
2022/06/08 05:19:21;;;;;;;27.30;20.20;;;;;;;15.57;92.85;98228.31;220907;1271;25306;-72
2022/06/08 05:24:36;;;;;;;23.60;18.30;;;;;;;15.63;93.34;98236.77;220825;1271;22755;-71
2022/06/08 05:29:39;;;;;;;26.50;19.40;;;;;;;15.71;93.64;98235.48;221057;1274;22717;-72
2022/06/08 05:34:52;;;;;;;26.50;19.00;;;;;;;15.82;93.59;98240.80;220843;1271;25379;-73
2022/06/08 05:39:55;;;;;;;22.90;18.10;;;;;;;15.89;93.43;98233.34;221249;1271;22622;-72
2022/06/08 05:45:08;;;;;;;20.60;17.10;;;;;;;15.96;93.32;98229.55;221261;1271;22543;-73
2022/06/08 05:50:26;;;;;;;20.30;16.30;;;;;;;15.99;93.17;98228.94;221224;1271;22532;-73
2022/06/08 05:55:37;;;;;;;17.90;15.90;;;;;;;16.01;93.07;98230.94;221103;1274;22548;-71
2022/06/08 06:01:00;;;;;;;15.40;13.40;;;;;;;16.01;92.82;98232.15;220618;1274;23169;-72
2022/06/08 06:06:17;;;;;;;15.40;13.80;;;;;;;16.01;92.88;98234.88;221579;1272;22541;-72
2022/06/08 06:11:21;;;;;;;14.40;12.90;;;;;;;16.10;93.32;98237.29;221356;1271;25337;-72
2022/06/08 06:16:56;;;;;;;14.50;12.80;;;;;;;16.21;93.29;98247.92;221510;1271;23071;-71
2022/06/08 06:22:32;;;;;;;15.30;12.80;;;;;;;16.25;92.87;98258.47;221201;1271;22557;-72
2022/06/08 06:28:08;;;;;;;14.00;12.50;;;;;;;16.25;92.82;98263.79;220985;1273;24387;-73
2022/06/08 06:33:45;;;;;;;14.10;12.60;;;;;;;16.29;92.97;98268.31;221331;1271;22734;-72
2022/06/08 06:38:51;;;;;;;13.30;11.90;;;;;;;16.34;92.89;98278.58;221361;1271;22695;-71
2022/06/08 06:44:04;;;;;;;15.40;12.80;;;;;;;16.37;92.73;98278.98;221742;1271;23011;-72
2022/06/08 06:49:18;;;;;;;13.70;12.20;;;;;;;16.44;92.78;98272.79;221360;1271;22566;-71
2022/06/08 06:54:23;;;;;;;15.10;12.00;;;;;;;16.48;92.74;98273.45;220957;1271;23441;-71
2022/06/08 06:59:28;;;;;;;14.80;12.70;;;;;;;16.56;92.96;98274.77;221263;1271;22553;-72
2022/06/08 07:04:36;;;;;;;14.60;12.30;;;;;;;16.64;92.82;98273.23;221560;1271;22560;-72
2022/06/08 07:10:01;;;;;;;12.90;11.60;;;;;;;16.68;92.49;98272.52;221334;1271;22576;-72
2022/06/08 07:15:05;;;;;;;13.20;11.90;;;;;;;16.72;92.60;98269.40;221153;1271;22613;-71
2022/06/08 07:20:20;;;;;;;13.60;12.00;;;;;;;16.77;92.26;98257.16;221368;1271;22525;-72
2022/06/08 07:25:45;;;;;;;14.50;12.70;;;;;;;16.82;92.17;98254.20;221223;1271;23356;-74
2022/06/08 07:31:00;;;;;;;;;;;;;;;;;;;;;
2022/06/08 07:36:20;;;;;;;18.70;14.60;;;;;;;17.00;91.93;98254.96;221536;1271;23155;-71
2022/06/08 07:41:24;;;;;;;15.00;13.30;;;;;;;17.05;91.82;98254.50;221195;1271;26817;-71
2022/06/08 07:46:29;;;;;;;14.90;13.40;;;;;;;17.12;91.72;98254.23;221671;1272;23281;-72
2022/06/08 07:51:55;;;;;;;13.40;12.00;;;;;;;17.23;91.71;98258.01;221432;1271;22745;-71
2022/06/08 07:56:59;;;;;;;12.50;11.00;;;;;;;17.27;91.16;98258.20;221258;1271;22718;-71
2022/06/08 08:02:14;;;;;;;13.10;11.20;;;;;;;17.30;91.02;98263.92;221434;1272;22816;-72
2022/06/08 08:07:27;;;;;;;53.20;48.20;;;;;;;17.37;90.99;98266.41;221153;1271;24252;-71
2022/06/08 08:12:55;;;;;;;14.90;13.40;;;;;;;17.42;90.44;98271.59;221197;1274;24201;-71
2022/06/08 08:17:56;;;;;;;12.10;10.90;;;;;;;17.47;89.97;98284.33;221710;1271;22654;-73
2022/06/08 08:22:59;;;;;;;12.40;11.00;;;;;;;17.51;89.96;98290.08;221481;1271;24973;-73
2022/06/08 08:28:29;;;;;;;12.40;11.10;;;;;;;17.55;89.83;98295.45;221208;1271;25484;-71
2022/06/08 08:33:56;;;;;;;13.20;11.80;;;;;;;17.57;89.28;98300.92;221007;1271;23014;-72
2022/06/08 08:39:09;;;;;;;12.30;11.00;;;;;;;17.56;88.87;98301.42;221087;1271;22719;-72
2022/06/08 08:44:38;;;;;;;14.70;12.00;;;;;;;17.52;88.76;98297.16;221006;1271;22556;-71
2022/06/08 08:50:19;;;;;;;14.90;12.70;;;;;;;17.57;89.13;98288.75;226128;1271;22438;-72
2022/06/08 08:55:56;;;;;;;14.30;12.70;;;;;;;17.63;89.29;98281.33;226293;1271;22331;-72
2022/06/08 09:01:09;;;;;;;14.60;13.10;;;;;;;17.64;89.34;98275.95;226255;1271;23017;-71
2022/06/08 09:06:26;;;;;;;15.60;13.60;;;;;;;17.63;89.64;98267.42;226140;1271;23227;-71
2022/06/08 09:11:39;;;;;;;18.40;14.20;;;;;;;17.66;89.98;98258.66;226203;1271;22470;-72
2022/06/08 09:16:45;;;;;;;13.10;11.70;;;;;;;17.70;89.83;98256.30;226278;1272;23144;-72
2022/06/08 09:22:24;;;;;;;15.50;13.50;;;;;;;17.77;89.93;98245.40;226065;1271;23087;-72
2022/06/08 09:27:47;;;;;;;15.10;13.50;;;;;;;17.81;89.87;98232.80;226359;1271;23094;-72
2022/06/08 09:33:20;;;;;;;15.80;14.10;;;;;;;17.84;90.01;98228.94;226137;1271;23510;-70
2022/06/08 09:38:33;;;;;;;15.70;14.10;;;;;;;17.97;90.40;98226.64;226019;1271;22448;-72
2022/06/08 09:44:00;;;;;;;15.80;13.70;;;;;;;18.06;90.32;98227.86;226279;1271;23097;-71
2022/06/08 09:55:08;;;;;;;17.00;15.10;;;;;;;18.22;89.87;98201.36;226299;1270;22466;-72
2022/06/08 10:00:36;;;;;;;14.80;13.00;;;;;;;18.21;89.65;98193.82;226164;1271;22504;-73
2022/06/08 10:06:16;;;;;;;15.80;14.10;;;;;;;18.32;89.60;98200.41;226357;1271;22806;-72
2022/06/08 10:11:37;;;;;;;17.00;14.80;;;;;;;18.41;89.29;98212.07;226167;1271;22480;-71
2022/06/08 10:16:47;;;;;;;19.30;16.60;;;;;;;18.50;89.43;98208.79;226296;1271;22387;-72
2022/06/08 10:21:55;;;;;;;19.50;16.10;;;;;;;18.55;88.66;98212.36;226241;1271;22173;-73
2022/06/08 10:27:25;;;;;;;18.40;16.20;;;;;;;18.53;88.53;98203.17;226165;1271;22395;-72
2022/06/08 10:32:41;;;;;;;20.90;18.10;;;;;;;18.68;88.73;98198.77;226265;1271;22952;-72
2022/06/08 10:37:44;;;;;;;21.20;18.80;;;;;;;18.87;88.41;98189.86;226318;1271;23023;-72
2022/06/08 10:42:49;;;;;;;21.70;18.20;;;;;;;19.02;87.92;98190.94;226270;1270;22364;-72
2022/06/08 10:48:26;;;;;;;20.60;18.40;;;;;;;19.13;87.23;98190.28;226335;1271;22550;-71
2022/06/08 10:59:29;;;;;;;22.40;19.80;;;;;;;19.67;86.76;98200.16;226354;1271;23040;-73
2022/06/08 11:04:38;;;;;;;23.90;20.00;;;;;;;19.98;86.21;98196.71;226311;1271;22992;-71
2022/06/08 11:09:50;;;;;;;23.90;20.90;;;;;;;19.99;84.96;98196.95;226376;1270;22443;-73
2022/06/08 11:15:00;;;;;;;23.20;19.80;;;;;;;19.82;84.32;98200.34;226277;1271;22340;-72
2022/06/08 11:20:24;;;;;;;20.90;17.10;;;;;;;19.67;83.97;98195.57;226083;1271;22421;-73
2022/06/08 11:26:07;;;;;;;18.70;16.50;;;;;;;19.58;84.07;98199.30;226304;1271;22460;-70
2022/06/08 11:31:27;;;;;;;17.50;15.60;;;;;;;19.52;83.79;98192.84;226184;1271;23023;-72
2022/06/08 11:37:14;;;;;;;18.20;16.10;;;;;;;19.56;83.89;98196.41;226255;1271;22863;-72
2022/06/08 11:42:27;;;;;;;12.50;11.30;;;;;;;19.76;83.92;98188.91;226336;1271;22415;-72
2022/06/08 11:47:53;;;;;;;15.60;14.00;;;;;;;19.94;84.00;98187.17;226181;1273;22390;-72
2022/06/08 11:53:05;;;;;;;16.10;14.40;;;;;;;20.12;83.21;98187.91;226336;1271;22411;-73
2022/06/08 11:58:23;;;;;;;15.40;13.80;;;;;;;20.19;82.57;98186.92;227034;1270;23237;-71
2022/06/08 12:03:47;;;;;;;15.50;14.10;;;;;;;20.25;81.84;98174.41;226990;1271;22500;-72
2022/06/08 12:08:59;;;;;;;18.80;15.90;;;;;;;20.18;81.72;98166.40;226816;1271;22564;-73
2022/06/08 12:14:27;;;;;;;19.80;17.60;;;;;;;20.22;81.94;98157.28;226808;1271;205829;-72
2022/06/08 12:20:03;;;;;;;16.90;15.20;;;;;;;20.53;82.22;98151.23;226963;1269;22355;-73
2022/06/08 12:25:30;;;;;;;14.90;13.60;;;;;;;20.84;81.42;98153.25;227000;1271;23118;-75
2022/06/08 12:30:39;;;;;;;16.50;15.00;;;;;;;20.95;80.61;98146.54;226885;1271;24048;-74
2022/06/08 12:35:57;;;;;;;14.60;13.20;;;;;;;21.10;80.42;98141.30;226948;1270;22349;-73
2022/06/08 12:41:08;;;;;;;13.60;12.30;;;;;;;21.04;79.57;98140.39;226868;1270;22337;-74
2022/06/08 12:46:13;;;;;;;15.00;13.60;;;;;;;20.94;79.25;98138.35;226864;1271;22405;-74
2022/06/08 12:51:22;;;;;;;16.10;14.60;;;;;;;20.92;79.37;98136.01;226813;1271;24259;-74
2022/06/08 12:56:28;;;;;;;19.20;17.30;;;;;;;20.97;79.13;98128.98;227003;1271;22162;-73
2022/06/08 13:01:30;;;;;;;19.00;17.20;;;;;;;21.02;79.16;98127.39;226908;1271;22464;-73
2022/06/08 13:06:33;;;;;;;17.00;15.40;;;;;;;21.07;79.17;98125.02;226731;1271;22414;-72
2022/06/08 13:11:38;;;;;;;18.90;17.10;;;;;;;21.19;79.27;98111.98;226909;1271;22509;-73
2022/06/08 13:16:40;;;;;;;17.90;16.20;;;;;;;21.32;78.54;98106.89;227088;1270;22338;-73
2022/06/08 13:21:44;;;;;;;17.50;15.80;;;;;;;21.36;77.75;98109.09;227031;1271;22399;-74
2022/06/08 13:26:47;;;;;;;20.30;18.30;;;;;;;21.25;77.01;98105.11;226835;1271;22625;-74
2022/06/08 13:31:50;;;;;;;16.50;15.00;;;;;;;21.32;77.48;98098.87;226853;1270;23409;-73
2022/06/08 13:36:57;;;;;;;13.50;12.30;;;;;;;21.45;76.88;98102.16;226917;1270;22383;-74
2022/06/08 13:42:12;;;;;;;23.40;21.00;;;;;;;21.65;76.48;98103.04;226880;1270;22539;-73
2022/06/08 13:47:22;;;;;;;22.60;20.30;;;;;;;21.97;76.48;98100.36;226928;1271;23081;-72
2022/06/08 13:52:25;;;;;;;;;;;;;;;22.21;75.99;98099.63;226897;1273;22434;-73
2022/06/08 13:57:32;;;;;;;18.80;17.00;;;;;;;22.24;75.01;98101.73;226900;1271;22393;-71
2022/06/08 14:02:55;;;;;;;17.40;15.70;;;;;;;22.10;74.33;98101.52;221268;1271;24341;-71
2022/06/08 14:14:02;;;;;;;17.10;15.50;;;;;;;22.21;74.70;98097.52;219900;1279;25494;-71
2022/06/08 14:19:17;;;;;;;16.30;14.90;;;;;;;22.22;74.44;98104.63;220476;1271;22584;-71
2022/06/08 14:24:36;;;;;;;17.40;15.80;;;;;;;22.02;74.11;98102.80;221015;1271;22691;-71
2022/06/08 14:29:54;;;;;;;14.60;13.30;;;;;;;21.61;73.97;98102.63;220837;1271;25055;-71
2022/06/08 14:35:08;;;;;;;15.80;14.30;;;;;;;21.21;74.40;98102.35;220968;1271;26397;-72
2022/06/08 14:40:34;;;;;;;13.90;12.70;;;;;;;20.92;75.11;98104.43;220996;1270;22546;-72
2022/06/08 14:45:44;;;;;;;14.90;13.40;;;;;;;20.66;75.36;98099.70;221044;1271;22557;-72
2022/06/08 14:50:53;;;;;;;15.70;14.20;;;;;;;20.45;75.86;98102.71;221037;1271;24313;-72
2022/06/08 15:01:21;;;;;;;13.00;11.80;;;;;;;20.14;76.65;98090.98;220721;1271;22568;-71
2022/06/08 15:06:37;;;;;;;13.80;12.30;;;;;;;20.08;77.25;98080.11;221259;1271;25922;-70
2022/06/08 15:12:00;;;;;;;13.40;12.10;;;;;;;20.05;77.47;98071.69;221104;1271;23800;-71
2022/06/08 15:17:06;;;;;;;12.60;11.30;;;;;;;20.01;77.35;98060.99;221441;1271;23083;-72
2022/06/08 15:22:12;;;;;;;10.60;9.60;;;;;;;20.08;77.81;98053.70;220911;1271;22584;-71
2022/06/08 15:27:19;;;;;;;9.60;8.80;;;;;;;20.31;78.04;98040.77;220997;1271;22590;-71
2022/06/08 15:32:29;;;;;;;9.50;8.70;;;;;;;20.61;78.13;98041.64;220599;1271;25912;-71
2022/06/08 15:37:57;;;;;;;11.20;10.20;;;;;;;20.83;77.90;98031.09;220997;1271;25238;-71
2022/06/08 15:43:42;;;;;;;10.60;9.70;;;;;;;20.93;76.64;98030.30;220959;1271;25387;-71
2022/06/08 15:48:52;;;;;;;11.10;10.20;;;;;;;20.87;76.25;98028.85;221229;1271;22706;-72
2022/06/08 15:54:16;;;;;;;11.90;10.80;;;;;;;20.78;76.17;98033.59;220925;1271;22576;-70
2022/06/08 15:59:49;;;;;;;12.50;11.30;;;;;;;20.68;76.19;98034.19;221067;1271;25511;-72
2022/06/08 16:04:52;;;;;;;12.70;11.50;;;;;;;20.60;76.55;98039.05;221081;1273;22710;-71
2022/06/08 16:10:01;;;;;;;69.30;59.90;;;;;;;20.58;76.62;98031.34;221176;1272;22553;-71
2022/06/08 16:15:13;;;;;;;14.20;12.80;;;;;;;20.57;76.95;98031.10;221031;1272;22531;-69
2022/06/08 16:20:20;;;;;;;13.00;11.80;;;;;;;20.64;77.14;98033.73;219891;1272;23203;-72
2022/06/08 16:25:32;;;;;;;12.80;11.50;;;;;;;20.66;76.80;98028.78;221299;1274;22598;-70
2022/06/08 16:30:42;;;;;;;15.20;13.40;;;;;;;20.61;76.57;98017.62;221256;1272;22550;-70
2022/06/08 16:36:08;;;;;;;13.60;12.20;;;;;;;20.66;77.04;98007.11;221185;1274;22634;-70
2022/06/08 16:41:16;;;;;;;12.70;11.50;;;;;;;20.74;76.98;97991.25;221160;1274;24256;-71
2022/06/08 16:46:22;;;;;;;13.10;11.70;;;;;;;20.76;76.70;97987.30;221341;1272;22544;-70
2022/06/08 16:51:30;;;;;;;13.20;10.60;;;;;;;20.74;76.52;97984.34;221219;1271;24384;-72
2022/06/08 17:02:13;;;;;;;13.10;11.90;;;;;;;20.61;76.81;97968.17;220955;1272;22585;-72
2022/06/08 17:07:32;;;;;;;14.30;12.90;;;;;;;20.58;76.69;97973.59;221175;1273;22567;-72
2022/06/08 17:12:37;;;;;;;14.70;13.00;;;;;;;20.58;77.25;97967.84;221325;1272;25239;-72
2022/06/08 17:17:40;;;;;;;14.20;12.80;;;;;;;20.94;77.61;97967.78;221342;1273;24294;-71
2022/06/08 17:22:51;;;;;;;12.50;11.20;;;;;;;21.22;77.57;97965.64;221283;1274;22565;-71
2022/06/08 17:27:59;;;;;;;11.40;10.30;;;;;;;21.68;77.12;97969.84;221232;1271;22510;-72
2022/06/08 17:33:24;;;;;;;12.40;11.20;;;;;;;21.70;75.45;97961.58;221002;1274;22551;-71
2022/06/08 17:38:40;;;;;;;13.00;11.50;;;;;;;21.43;74.99;97966.33;221436;1273;24133;-71
2022/06/08 17:43:43;;;;;;;13.90;12.40;;;;;;;21.10;74.72;97970.55;221552;1273;22559;-71
2022/06/08 17:48:46;;;;;;;12.70;11.50;;;;;;;20.79;75.02;97971.39;221037;1271;25418;-71
2022/06/08 17:54:01;;;;;;;14.40;12.60;;;;;;;20.63;75.73;97980.16;221156;1274;22535;-71
2022/06/08 17:59:04;;;;;;;13.60;12.10;;;;;;;20.54;76.05;97985.91;221492;1274;24792;-71
2022/06/08 18:04:09;;;;;;;13.00;11.70;;;;;;;20.44;76.07;97992.41;221099;1273;22536;-71
2022/06/08 18:09:11;;;;;;;15.60;14.10;;;;;;;20.30;76.23;98000.50;221278;1271;24281;-71
2022/06/08 18:14:16;;;;;;;14.20;12.70;;;;;;;20.15;76.59;98010.45;221367;1272;25818;-71
2022/06/08 18:19:45;;;;;;;15.70;14.20;;;;;;;20.01;77.01;98013.92;221327;1272;22554;-71
2022/06/08 18:30:29;;;;;;;13.60;12.30;;;;;;;19.68;77.48;98020.38;221222;1273;24235;-72
2022/06/08 18:35:33;;;;;;;13.40;12.00;;;;;;;19.53;77.80;98016.14;221309;1273;22537;-71
2022/06/08 18:40:36;;;;;;;15.40;13.90;;;;;;;19.41;78.20;98015.58;221134;1274;22681;-73
2022/06/08 18:45:40;;;;;;;13.90;12.40;;;;;;;19.31;78.69;98012.80;221473;1271;22544;-71
2022/06/08 18:50:43;;;;;;;15.50;13.90;;;;;;;19.21;78.95;98012.95;220905;1271;22544;-71
2022/06/08 18:55:48;;;;;;;13.60;12.30;;;;;;;19.11;79.26;98006.91;220952;1272;22683;-71
2022/06/08 19:00:51;;;;;;;13.80;12.50;;;;;;;19.03;79.73;98004.45;220877;1274;22583;-71
2022/06/08 19:06:03;;;;;;;14.70;13.20;;;;;;;18.95;79.94;98012.61;220919;1272;22544;-71
2022/06/08 19:11:23;;;;;;;15.20;13.60;;;;;;;18.86;80.26;98015.34;220976;1272;22591;-71
2022/06/08 19:16:39;;;;;;;15.90;14.30;;;;;;;18.76;80.56;98013.59;221234;1272;25876;-70
2022/06/08 19:21:50;;;;;;;16.10;14.40;;;;;;;18.67;80.81;98009.86;221272;1274;23458;-71
2022/06/08 19:27:13;;;;;;;14.50;13.00;;;;;;;18.57;81.07;98012.80;220908;1272;22535;-72
2022/06/08 19:32:18;;;;;;;15.00;13.20;;;;;;;18.48;81.23;98010.61;220749;1273;22585;-73
2022/06/08 19:37:38;;;;;;;15.60;13.40;;;;;;;18.39;81.38;98014.63;221027;1273;24211;-71
2022/06/08 19:42:46;;;;;;;14.40;12.90;;;;;;;18.31;81.70;98023.79;221015;1271;22643;-71
2022/06/08 19:48:00;;;;;;;16.00;14.40;;;;;;;18.26;81.81;98029.73;220804;1274;22673;-71
2022/06/08 19:53:15;;;;;;;14.80;13.20;;;;;;;18.20;81.99;98036.25;220845;1271;22540;-72
2022/06/08 19:58:42;;;;;;;15.40;13.10;;;;;;;18.14;82.24;98038.94;220573;1274;25456;-70
2022/06/08 20:04:21;;;;;;;16.70;14.70;;;;;;;18.11;82.53;98044.46;221093;1271;24283;-71
2022/06/08 20:17:17;;;;;;;14.70;12.90;;;;;;;18.04;82.92;98025.90;221090;1271;22676;-71
2022/06/08 20:23:02;;;;;;;13.80;12.40;;;;;;;18.01;82.99;98021.02;220995;1271;24583;-71
2022/06/08 20:28:52;;;;;;;;;;;;;;;;;;;;;
2022/06/08 20:34:08;;;;;;;13.00;11.80;;;;;;;17.99;83.54;98036.39;219761;1271;23238;-71
2022/06/08 20:39:13;;;;;;;13.50;12.10;;;;;;;18.00;83.71;98047.10;220858;1271;22590;-72
2022/06/08 20:44:19;;;;;;;12.40;11.10;;;;;;;17.99;83.90;98046.75;220670;1271;22546;-71
2022/06/08 20:49:26;;;;;;;13.70;12.20;;;;;;;18.01;84.25;98043.16;221146;1271;22570;-71
2022/06/08 20:54:59;;;;;;;13.30;11.90;;;;;;;18.06;84.37;98042.36;221359;1271;22538;-71
2022/06/08 21:00:25;;;;;;;10.30;8.90;;;;;;;18.11;84.47;98048.41;220975;1271;22551;-73
2022/06/08 21:05:34;;;;;;;8.00;6.40;;;;;;;18.05;83.60;98055.33;221180;1272;24714;-71
2022/06/08 21:11:02;;;;;;;6.30;5.80;;;;;;;17.89;83.03;98060.40;221014;1271;23202;-71
2022/06/08 21:16:55;;;;;;;;;;;;;;;;;;;;;
2022/06/08 21:22:13;;;;;;;5.00;4.50;;;;;;;17.53;83.16;98057.04;221044;1271;24263;-72
2022/06/08 21:27:29;;;;;;;5.20;4.50;;;;;;;17.36;83.41;98052.77;220679;1271;25363;-71
2022/06/08 21:32:50;;;;;;;4.70;4.10;;;;;;;17.19;83.88;98047.50;220486;1273;24287;-71
2022/06/08 21:37:58;;;;;;;4.80;4.30;;;;;;;17.03;84.00;98036.00;220526;1273;24417;-71
2022/06/08 21:43:04;;;;;;;5.80;4.60;;;;;;;16.91;84.43;98033.98;220859;1273;24232;-72
2022/06/08 21:48:09;;;;;;;9.00;6.50;;;;;;;16.72;84.98;98026.92;220809;1271;24319;-72
2022/06/08 21:53:15;;;;;;;6.50;4.40;;;;;;;16.50;85.29;98011.36;220571;1271;22556;-71
2022/06/08 21:58:18;;;;;;;4.80;4.10;;;;;;;16.31;85.92;97995.94;220454;1271;23473;-71
2022/06/08 22:03:23;;;;;;;4.50;4.10;;;;;;;16.17;86.50;97986.79;220631;1271;24350;-71
2022/06/08 22:08:27;;;;;;;4.50;4.00;;;;;;;16.05;86.97;97973.86;220769;1271;25249;-71
2022/06/08 22:13:32;;;;;;;4.60;4.00;;;;;;;15.94;87.19;97961.38;220442;1271;24323;-70
2022/06/08 22:18:54;;;;;;;;;;;;;;;15.87;87.68;97941.52;220560;1271;24742;-71
2022/06/08 22:24:10;;;;;;;4.50;4.10;;;;;;;15.81;88.06;97935.23;220579;1271;22563;-72
2022/06/08 22:29:13;;;;;;;5.00;4.10;;;;;;;15.75;88.39;97925.95;220467;1271;22625;-71
2022/06/08 22:34:18;;;;;;;8.00;7.20;;;;;;;15.71;88.81;97923.69;220675;1273;25252;-72
2022/06/08 22:39:37;;;;;;;6.90;5.10;;;;;;;15.71;89.30;97925.85;220603;1273;24253;-71
2022/06/08 22:44:46;;;;;;;6.40;4.70;;;;;;;15.73;89.79;97911.09;220909;1274;22579;-71
2022/06/08 22:49:51;;;;;;;5.00;4.30;;;;;;;15.73;89.67;97886.19;221063;1271;23405;-71
2022/06/08 22:55:00;;;;;;;4.90;4.50;;;;;;;15.69;89.55;97881.25;220838;1271;24307;-72
2022/06/08 23:00:27;;;;;;;4.70;4.30;;;;;;;15.63;89.68;97883.73;220800;1274;22625;-71
2022/06/08 23:05:33;;;;;;;7.10;5.60;;;;;;;15.61;90.35;97889.75;220574;1275;22579;-73
2022/06/08 23:21:46;;;;;;;6.10;5.20;;;;;;;15.53;91.07;97884.00;220584;1271;22539;-73
2022/06/08 23:26:51;;;;;;;5.70;4.90;;;;;;;15.52;91.12;97876.95;220535;1271;22709;-71
2022/06/08 23:31:57;;;;;;;5.80;5.10;;;;;;;15.50;91.20;97872.90;220546;1273;25360;-72
2022/06/08 23:37:03;;;;;;;6.30;5.60;;;;;;;15.49;91.44;97865.69;220617;1274;25273;-72
2022/06/08 23:42:10;;;;;;;7.10;6.40;;;;;;;15.50;91.67;97861.87;220612;1274;24280;-71
2022/06/08 23:47:33;;;;;;;6.80;6.20;;;;;;;15.49;91.81;97860.36;220979;1271;24223;-71
2022/06/08 23:52:42;;;;;;;6.60;6.00;;;;;;;15.49;91.86;97856.04;220442;1271;23637;-72
2022/06/08 23:57:45;;;;;;;7.30;6.30;;;;;;;15.47;91.80;97849.50;220657;1271;25462;-72
